createdAt,value
2022-10-17T00:01:51.413Z,101606.00
2022-10-17T00:04:24.918Z,101615.00
2022-10-17T00:06:55.160Z,101622.00
2022-10-17T00:09:25.326Z,101623.00
2022-10-17T00:11:55.457Z,101623.00
2022-10-17T00:14:25.723Z,101625.00
2022-10-17T00:16:55.988Z,101625.00
2022-10-17T00:19:28.929Z,101615.00
2022-10-17T00:21:59.027Z,101616.00
2022-10-17T00:24:29.213Z,101616.00
2022-10-17T00:26:59.477Z,101623.00
2022-10-17T00:29:29.747Z,101623.00
2022-10-17T00:32:00.553Z,101601.00
2022-10-17T00:34:33.758Z,101605.00
2022-10-17T00:37:03.864Z,101594.00
2022-10-17T00:39:34.113Z,101589.00
2022-10-17T00:42:04.290Z,101597.00
2022-10-17T00:45:03.668Z,101604.00
2022-10-17T00:47:34.743Z,101599.00
2022-10-17T00:50:10.216Z,101607.00
2022-10-17T00:52:40.860Z,101602.00
2022-10-17T00:55:17.033Z,101601.00
2022-10-17T00:57:48.590Z,101595.00
2022-10-17T01:00:20.319Z,101602.00
2022-10-17T01:02:51.403Z,101613.00
2022-10-17T01:05:24.810Z,101614.00
2022-10-17T01:07:56.730Z,101622.00
2022-10-17T01:10:35.300Z,101614.00
2022-10-17T01:13:14.817Z,101622.00
2022-10-17T01:16:00.083Z,101624.00
2022-10-17T01:18:45.888Z,101617.00
2022-10-17T01:21:34.403Z,101618.00
2022-10-17T01:24:24.034Z,101618.00
2022-10-17T01:27:48.554Z,101601.00
2022-10-17T01:31:11.283Z,101584.00
2022-10-17T01:33:51.912Z,101577.00
2022-10-17T01:36:38.322Z,101575.00
2022-10-17T01:39:19.170Z,101579.00
2022-10-17T01:41:59.106Z,101578.00
2022-10-17T01:44:37.278Z,101581.00
2022-10-17T01:47:14.735Z,101576.00
2022-10-17T01:49:46.998Z,101577.00
2022-10-17T01:52:23.022Z,101576.00
2022-10-17T01:54:57.126Z,101576.00
2022-10-17T01:57:33.545Z,101574.00
2022-10-17T02:00:07.100Z,101578.00
2022-10-17T02:02:40.556Z,101578.00
2022-10-17T02:05:12.017Z,101576.00
2022-10-17T02:07:44.442Z,101573.00
2022-10-17T02:10:24.734Z,101567.00
2022-10-17T02:13:01.271Z,101571.00
2022-10-17T02:16:08.079Z,101563.00
2022-10-17T02:19:27.893Z,101576.00
2022-10-17T02:22:11.367Z,101575.00
2022-10-17T02:24:50.842Z,101574.00
2022-10-17T02:27:32.015Z,101571.00
2022-10-17T02:30:11.426Z,101577.00
2022-10-17T02:32:50.445Z,101573.00
2022-10-17T02:35:26.023Z,101582.00
2022-10-17T02:37:58.453Z,101583.00
2022-10-17T02:40:32.481Z,101571.00
2022-10-17T02:43:03.700Z,101574.00
2022-10-17T02:45:36.281Z,101570.00
2022-10-17T02:48:09.853Z,101560.00
2022-10-17T02:50:55.575Z,101574.00
2022-10-17T02:53:36.379Z,101578.00
2022-10-17T02:56:13.708Z,101574.00
2022-10-17T02:58:45.230Z,101564.00
2022-10-17T03:01:16.423Z,101569.00
2022-10-17T03:03:47.345Z,101575.00
2022-10-17T03:06:20.702Z,101574.00
2022-10-17T03:08:50.896Z,101565.00
2022-10-17T03:11:21.589Z,101567.00
2022-10-17T03:13:51.780Z,101562.00
2022-10-17T03:16:22.057Z,101562.00
2022-10-17T03:18:52.245Z,101562.00
2022-10-17T03:21:25.050Z,101560.00
2022-10-17T03:23:55.217Z,101560.00
2022-10-17T03:26:25.720Z,101558.00
2022-10-17T03:28:55.899Z,101552.00
2022-10-17T03:31:26.282Z,101550.00
2022-10-17T03:33:57.243Z,101551.00
2022-10-17T03:36:30.145Z,101558.00
2022-10-17T03:39:00.282Z,101564.00
2022-10-17T03:41:30.574Z,101560.00
2022-10-17T03:44:00.999Z,101561.00
2022-10-17T03:46:31.278Z,101560.00
2022-10-17T03:49:01.638Z,101560.00
2022-10-17T03:51:37.180Z,101548.00
2022-10-17T03:54:07.684Z,101551.00
2022-10-17T03:56:37.804Z,101555.00
2022-10-17T03:59:08.489Z,101551.00
2022-10-17T04:01:38.655Z,101572.00
2022-10-17T04:04:09.132Z,101561.00
2022-10-17T04:06:42.039Z,101558.00
2022-10-17T04:09:13.803Z,101565.00
2022-10-17T04:11:44.974Z,101561.00
2022-10-17T04:14:15.136Z,101557.00
2022-10-17T04:16:45.967Z,101549.00
2022-10-17T04:19:17.313Z,101549.00
2022-10-17T04:21:50.242Z,101545.00
2022-10-17T04:24:20.706Z,101550.00
2022-10-17T04:26:54.861Z,101541.00
2022-10-17T04:29:25.068Z,101544.00
2022-10-17T04:31:56.152Z,101545.00
2022-10-17T04:34:26.321Z,101541.00
2022-10-17T04:37:00.834Z,101547.00
2022-10-17T04:39:31.167Z,101541.00
2022-10-17T04:42:01.277Z,101530.00
2022-10-17T04:44:33.621Z,101541.00
2022-10-17T04:47:03.815Z,101534.00
2022-10-17T04:49:34.064Z,101539.00
2022-10-17T04:52:07.501Z,101538.00
2022-10-17T04:54:37.598Z,101536.00
2022-10-17T04:57:07.924Z,101536.00
2022-10-17T04:59:38.084Z,101534.00
2022-10-17T05:02:08.244Z,101527.00
2022-10-17T05:04:38.373Z,101534.00
2022-10-17T05:07:11.226Z,101530.00
2022-10-17T05:09:41.442Z,101533.00
2022-10-17T05:12:11.584Z,101530.00
2022-10-17T05:14:41.689Z,101528.00
2022-10-17T05:17:12.237Z,101531.00
2022-10-17T05:19:42.377Z,101535.00
2022-10-17T05:22:15.171Z,101537.00
2022-10-17T05:24:45.296Z,101542.00
2022-10-17T05:27:16.276Z,101533.00
2022-10-17T05:29:46.455Z,101543.00
2022-10-17T05:32:17.846Z,101539.00
2022-10-17T05:34:48.057Z,101539.00
2022-10-17T05:37:20.838Z,101541.00
2022-10-17T05:39:51.598Z,101542.00
2022-10-17T05:42:22.088Z,101545.00
2022-10-17T05:44:52.484Z,101551.00
2022-10-17T05:47:22.655Z,101556.00
2022-10-17T05:49:52.864Z,101558.00
2022-10-17T05:52:25.886Z,101551.00
2022-10-17T05:54:56.446Z,101547.00
2022-10-17T05:57:28.865Z,101551.00
2022-10-17T05:59:59.182Z,101549.00
2022-10-17T06:02:29.716Z,101548.00
2022-10-17T06:05:00.097Z,101554.00
2022-10-17T06:07:32.944Z,101558.00
2022-10-17T06:10:03.094Z,101555.00
2022-10-17T06:12:33.220Z,101566.00
2022-10-17T06:15:03.436Z,101560.00
2022-10-17T06:17:33.748Z,101561.00
2022-10-17T06:20:04.166Z,101561.00
2022-10-17T06:22:37.075Z,101565.00
2022-10-17T06:25:08.316Z,101578.00
2022-10-17T06:27:38.537Z,101573.00
2022-10-17T06:30:10.599Z,101573.00
2022-10-17T06:32:40.780Z,101580.00
2022-10-17T06:35:11.671Z,101584.00
2022-10-17T06:37:44.503Z,101592.00
2022-10-17T06:40:17.361Z,101594.00
2022-10-17T06:42:48.183Z,101589.00
2022-10-17T06:45:18.489Z,101594.00
2022-10-17T06:47:49.543Z,101599.00
2022-10-17T06:50:19.901Z,101597.00
2022-10-17T06:52:54.557Z,101608.00
2022-10-17T06:55:24.479Z,101606.00
2022-10-17T06:57:57.037Z,101605.00
2022-10-17T07:00:27.541Z,101609.00
2022-10-17T07:02:57.692Z,101617.00
2022-10-17T07:05:27.901Z,101623.00
2022-10-17T07:08:00.593Z,101621.00
2022-10-17T07:10:30.848Z,101622.00
2022-10-17T07:13:00.957Z,101628.00
2022-10-17T07:15:32.573Z,101624.00
2022-10-17T07:18:02.791Z,101622.00
2022-10-17T07:20:32.982Z,101620.00
2022-10-17T07:23:05.810Z,101607.00
2022-10-17T07:25:39.386Z,101612.00
2022-10-17T07:28:10.474Z,101609.00
2022-10-17T07:30:40.691Z,101614.00
2022-10-17T07:33:10.873Z,101626.00
2022-10-17T07:35:43.568Z,101619.00
2022-10-17T07:38:16.460Z,101619.00
2022-10-17T07:40:46.800Z,101621.00
2022-10-17T07:43:16.940Z,101631.00
2022-10-17T07:45:47.190Z,101628.00
2022-10-17T07:48:17.393Z,101625.00
2022-10-17T07:50:47.736Z,101630.00
2022-10-17T07:53:20.922Z,101628.00
2022-10-17T07:55:51.581Z,101633.00
2022-10-17T07:58:21.777Z,101637.00
2022-10-17T08:00:52.027Z,101633.00
2022-10-17T08:03:22.300Z,101621.00
2022-10-17T08:05:52.491Z,101626.00
2022-10-17T08:08:25.282Z,101633.00
2022-10-17T08:10:55.798Z,101627.00
2022-10-17T08:13:26.431Z,101619.00
2022-10-17T08:16:03.386Z,101635.00
2022-10-17T08:18:33.790Z,101630.00
2022-10-17T08:21:06.357Z,101628.00
2022-10-17T08:23:40.542Z,101618.00
2022-10-17T08:26:13.624Z,101625.00
2022-10-17T08:28:44.638Z,101632.00
2022-10-17T08:31:18.367Z,101633.00
2022-10-17T08:33:49.694Z,101639.00
2022-10-17T08:36:22.693Z,101638.00
2022-10-17T08:38:55.477Z,101638.00
2022-10-17T08:41:47.011Z,101628.00
2022-10-17T08:44:32.466Z,101634.00
2022-10-17T08:47:07.600Z,101634.00
2022-10-17T08:49:49.116Z,101624.00
2022-10-17T08:52:29.922Z,101625.00
2022-10-17T08:55:02.805Z,101625.00
2022-10-17T08:57:33.273Z,101627.00
2022-10-17T09:00:03.741Z,101612.00
2022-10-17T09:02:47.791Z,101617.00
2022-10-17T09:05:44.801Z,101617.00
2022-10-17T09:08:35.928Z,101621.00
2022-10-17T09:11:20.909Z,101624.00
2022-10-17T09:14:09.609Z,101624.00
2022-10-17T09:17:05.713Z,101619.00
2022-10-17T09:19:40.207Z,101623.00
2022-10-17T09:22:13.817Z,101622.00
2022-10-17T09:24:55.693Z,101623.00
2022-10-17T09:27:36.931Z,101624.00
2022-10-17T09:30:44.096Z,101636.00
2022-10-17T09:33:28.791Z,101634.00
2022-10-17T09:36:09.225Z,101638.00
2022-10-17T09:38:44.477Z,101628.00
2022-10-17T09:44:22.021Z,101620.00
2022-10-17T09:47:08.238Z,101621.00
2022-10-17T09:49:40.781Z,101621.00
2022-10-17T09:52:17.244Z,101622.00
2022-10-17T09:54:50.770Z,101619.00
2022-10-17T09:57:23.604Z,101613.00
2022-10-17T10:00:04.818Z,101608.00
2022-10-17T10:02:40.886Z,101607.00
2022-10-17T10:05:21.729Z,101615.00
2022-10-17T10:08:07.124Z,101616.00
2022-10-17T10:10:37.398Z,101609.00
2022-10-17T10:13:18.033Z,101605.00
2022-10-17T10:15:52.680Z,101613.00
2022-10-17T10:18:35.886Z,101614.00
2022-10-17T10:21:14.270Z,101614.00
2022-10-17T10:23:46.386Z,101616.00
2022-10-17T10:26:26.977Z,101605.00
2022-10-17T10:29:01.894Z,101613.00
2022-10-17T10:31:40.276Z,101618.00
2022-10-17T10:34:23.543Z,101616.00
2022-10-17T10:36:59.777Z,101614.00
2022-10-17T10:39:43.224Z,101609.00
2022-10-17T10:42:26.707Z,101619.00
2022-10-17T10:45:01.642Z,101615.00
2022-10-17T10:47:35.831Z,101608.00
2022-10-17T10:50:27.019Z,101615.00
2022-10-17T10:53:15.215Z,101612.00
2022-10-17T10:55:51.976Z,101614.00
2022-10-17T10:58:48.057Z,101616.00
2022-10-17T11:01:25.049Z,101621.00
2022-10-17T11:04:22.789Z,101614.00
2022-10-17T11:06:58.885Z,101606.00
2022-10-17T11:09:40.679Z,101605.00
2022-10-17T11:12:17.843Z,101612.00
2022-10-17T11:14:54.871Z,101601.00
2022-10-17T11:17:35.518Z,101605.00
2022-10-17T11:20:25.044Z,101603.00
2022-10-17T11:23:03.309Z,101604.00
2022-10-17T11:25:37.726Z,101602.00
2022-10-17T11:28:15.356Z,101592.00
2022-10-17T11:30:53.740Z,101580.00
2022-10-17T11:33:30.846Z,101585.00
2022-10-17T11:36:09.657Z,101583.00
2022-10-17T11:38:50.577Z,101580.00
2022-10-17T11:41:26.177Z,101585.00
2022-10-17T11:44:01.037Z,101582.00
2022-10-17T11:46:32.304Z,101582.00
2022-10-17T11:49:10.659Z,101579.00
2022-10-17T11:52:05.152Z,101574.00
2022-10-17T11:54:42.472Z,101573.00
2022-10-17T11:57:40.634Z,101571.00
2022-10-17T12:00:30.090Z,101575.00
2022-10-17T12:03:20.208Z,101576.00
2022-10-17T12:05:58.869Z,101574.00
2022-10-17T12:08:40.560Z,101575.00
2022-10-17T12:11:21.642Z,101570.00
2022-10-17T12:13:56.485Z,101572.00
2022-10-17T12:16:53.724Z,101568.00
2022-10-17T12:19:36.460Z,101559.00
2022-10-17T12:22:21.742Z,101563.00
2022-10-17T12:25:03.739Z,101562.00
2022-10-17T12:27:46.348Z,101565.00
2022-10-17T12:30:26.544Z,101564.00
2022-10-17T12:33:06.013Z,101566.00
2022-10-17T12:35:39.892Z,101563.00
2022-10-17T12:38:31.089Z,101556.00
2022-10-17T12:41:09.136Z,101562.00
2022-10-17T12:43:53.295Z,101564.00
2022-10-17T12:46:58.633Z,101553.00
2022-10-17T12:49:46.860Z,101562.00
2022-10-17T12:52:28.826Z,101554.00
2022-10-17T12:55:14.374Z,101548.00
2022-10-17T12:58:00.141Z,101542.00
2022-10-17T13:00:39.340Z,101538.00
2022-10-17T13:03:19.062Z,101545.00
2022-10-17T13:05:53.250Z,101545.00
2022-10-17T13:08:27.487Z,101545.00
2022-10-17T13:10:59.415Z,101535.00
2022-10-17T13:13:41.544Z,101543.00
2022-10-17T13:16:12.442Z,101544.00
2022-10-17T13:18:42.646Z,101537.00
2022-10-17T13:21:19.559Z,101545.00
2022-10-17T13:23:51.451Z,101545.00
2022-10-17T13:26:24.305Z,101537.00
2022-10-17T13:29:15.531Z,101532.00
2022-10-17T13:31:47.725Z,101537.00
2022-10-17T13:34:22.077Z,101543.00
2022-10-17T13:36:54.703Z,101531.00
2022-10-17T13:39:44.783Z,101536.00
2022-10-17T13:42:27.703Z,101543.00
2022-10-17T13:45:02.251Z,101539.00
2022-10-17T13:47:36.299Z,101543.00
2022-10-17T13:50:26.378Z,101545.00
2022-10-17T13:53:21.885Z,101547.00
2022-10-17T13:56:22.886Z,101538.00
2022-10-17T13:58:50.911Z,101538.00
2022-10-17T14:01:25.330Z,101541.00
2022-10-17T14:04:07.774Z,101538.00
2022-10-17T14:06:47.884Z,101534.00
2022-10-17T14:09:26.517Z,101536.00
2022-10-17T14:12:04.889Z,101530.00
2022-10-17T14:14:58.093Z,101536.00
2022-10-17T14:17:31.188Z,101544.00
2022-10-17T14:20:34.012Z,101542.00
2022-10-17T14:23:17.882Z,101544.00
2022-10-17T14:25:46.460Z,101557.00
2022-10-17T14:28:19.028Z,101551.00
2022-10-17T14:30:56.776Z,101547.00
2022-10-17T14:33:34.590Z,101550.00
2022-10-17T14:36:07.894Z,101547.00
2022-10-17T14:38:39.499Z,101551.00
2022-10-17T14:44:19.085Z,101569.00
2022-10-17T14:46:51.309Z,101562.00
2022-10-17T14:49:31.286Z,101568.00
2022-10-17T14:52:33.753Z,101567.00
2022-10-17T14:55:26.043Z,101565.00
2022-10-17T14:57:56.285Z,101568.00
2022-10-17T15:00:27.595Z,101576.00
2022-10-17T15:02:59.047Z,101574.00
2022-10-17T15:05:31.846Z,101569.00
2022-10-17T15:08:02.150Z,101569.00
2022-10-17T15:10:36.812Z,101575.00
2022-10-17T15:15:58.274Z,101573.00
2022-10-17T15:18:28.386Z,101570.00
2022-10-17T15:21:05.423Z,101560.00
2022-10-17T15:23:43.454Z,101562.00
2022-10-17T15:26:22.935Z,101568.00
2022-10-17T15:28:54.797Z,101567.00
2022-10-17T15:31:27.299Z,101567.00
2022-10-17T15:33:57.740Z,101568.00
2022-10-17T15:36:33.011Z,101578.00
2022-10-17T15:39:04.799Z,101578.00
2022-10-17T15:41:36.437Z,101577.00
2022-10-17T15:44:06.922Z,101582.00
2022-10-17T15:46:39.090Z,101581.00
2022-10-17T15:49:14.414Z,101581.00
2022-10-17T15:51:51.725Z,101579.00
2022-10-17T15:54:25.769Z,101584.00
2022-10-17T15:56:58.430Z,101582.00
2022-10-17T15:59:36.907Z,101591.00
2022-10-17T16:02:07.719Z,101589.00
2022-10-17T16:04:37.990Z,101588.00
2022-10-17T16:07:11.467Z,101581.00
2022-10-17T16:09:41.860Z,101592.00
2022-10-17T16:12:18.833Z,101585.00
2022-10-17T16:14:49.315Z,101591.00
2022-10-17T16:17:20.813Z,101589.00
2022-10-17T16:19:50.947Z,101588.00
2022-10-17T16:22:30.162Z,101593.00
2022-10-17T16:25:08.085Z,101594.00
2022-10-17T16:27:40.007Z,101589.00
2022-10-17T16:30:11.943Z,101590.00
2022-10-17T16:32:42.517Z,101593.00
2022-10-17T16:35:16.033Z,101582.00
2022-10-17T16:37:49.191Z,101597.00
2022-10-17T16:40:20.385Z,101595.00
2022-10-17T16:42:50.876Z,101595.00
2022-10-17T16:45:24.494Z,101600.00
2022-10-17T16:47:54.985Z,101603.00
2022-10-17T16:50:25.332Z,101597.00
2022-10-17T16:52:58.466Z,101600.00
2022-10-17T16:55:28.837Z,101602.00
2022-10-17T16:58:00.318Z,101601.00
2022-10-17T17:00:30.775Z,101602.00
2022-10-17T17:03:01.051Z,101597.00
2022-10-17T17:05:31.363Z,101598.00
2022-10-17T17:08:04.934Z,101598.00
2022-10-17T17:10:37.340Z,101598.00
2022-10-17T17:13:07.680Z,101606.00
2022-10-17T17:15:38.644Z,101601.00
2022-10-17T17:18:09.220Z,101600.00
2022-10-17T17:20:39.942Z,101601.00
2022-10-17T17:23:15.897Z,101598.00
2022-10-17T17:25:46.814Z,101612.00
2022-10-17T17:28:17.082Z,101606.00
2022-10-17T17:30:47.412Z,101601.00
2022-10-17T17:33:17.786Z,101602.00
2022-10-17T17:35:48.334Z,101597.00
2022-10-17T17:38:21.133Z,101607.00
2022-10-17T17:40:51.626Z,101601.00
2022-10-17T17:43:22.415Z,101609.00
2022-10-17T17:45:52.945Z,101606.00
2022-10-17T17:48:23.564Z,101606.00
2022-10-17T17:50:54.001Z,101598.00
2022-10-17T17:53:27.250Z,101614.00
2022-10-17T17:56:05.361Z,101608.00
2022-10-17T17:58:36.926Z,101608.00
2022-10-17T18:01:15.249Z,101621.00
2022-10-17T18:03:45.716Z,101617.00
2022-10-17T18:06:17.181Z,101616.00
2022-10-17T18:08:52.615Z,101617.00
2022-10-17T18:11:23.331Z,101621.00
2022-10-17T18:13:58.089Z,101619.00
2022-10-17T18:16:29.632Z,101622.00
2022-10-17T18:19:04.141Z,101629.00
2022-10-17T18:21:38.086Z,101622.00
2022-10-17T18:24:11.609Z,101639.00
2022-10-17T18:26:42.096Z,101645.00
2022-10-17T18:29:13.071Z,101645.00
2022-10-17T18:31:43.797Z,101643.00
2022-10-17T18:34:13.983Z,101646.00
2022-10-17T18:36:44.333Z,101641.00
2022-10-17T18:39:17.175Z,101636.00
2022-10-17T18:41:47.550Z,101647.00
2022-10-17T18:44:17.978Z,101646.00
2022-10-17T18:46:48.439Z,101647.00
2022-10-17T18:49:23.397Z,101644.00
2022-10-17T18:51:53.935Z,101643.00
2022-10-17T18:54:26.889Z,101643.00
2022-10-17T18:56:58.309Z,101645.00
2022-10-17T18:59:28.444Z,101654.00
2022-10-17T19:01:58.859Z,101656.00
2022-10-17T19:04:29.488Z,101667.00
2022-10-17T19:06:59.611Z,101665.00
2022-10-17T19:09:32.425Z,101670.00
2022-10-17T19:12:02.637Z,101663.00
2022-10-17T19:14:32.836Z,101673.00
2022-10-17T19:17:04.167Z,101681.00
2022-10-17T19:19:34.347Z,101675.00
2022-10-17T19:22:04.481Z,101669.00
2022-10-17T19:24:37.230Z,101682.00
2022-10-17T19:27:07.494Z,101677.00
2022-10-17T19:29:37.747Z,101686.00
2022-10-17T19:32:15.590Z,101686.00
2022-10-17T19:34:48.199Z,101683.00
2022-10-17T19:37:18.472Z,101689.00
2022-10-17T19:39:51.821Z,101691.00
2022-10-17T19:42:22.009Z,101684.00
2022-10-17T19:44:52.225Z,101690.00
2022-10-17T19:47:22.415Z,101690.00
2022-10-17T19:49:52.654Z,101684.00
2022-10-17T19:52:22.971Z,101683.00
2022-10-17T19:54:55.831Z,101698.00
2022-10-17T19:57:25.969Z,101689.00
2022-10-17T19:59:56.361Z,101694.00
2022-10-17T20:02:26.779Z,101688.00
2022-10-17T20:05:13.775Z,101696.00
2022-10-17T20:07:47.012Z,101699.00
2022-10-17T20:10:20.348Z,101698.00
2022-10-17T20:12:50.732Z,101697.00
2022-10-17T20:15:21.104Z,101704.00
2022-10-17T20:17:51.178Z,101703.00
2022-10-17T20:20:21.527Z,101715.00
2022-10-17T20:22:51.788Z,101712.00
2022-10-17T20:25:24.815Z,101711.00
2022-10-17T20:27:55.215Z,101718.00
2022-10-17T20:30:25.442Z,101718.00
2022-10-17T20:32:55.703Z,101709.00
2022-10-17T20:35:26.372Z,101722.00
2022-10-17T20:37:56.559Z,101721.00
2022-10-17T20:40:35.118Z,101729.00
2022-10-17T20:43:06.312Z,101726.00
2022-10-17T20:45:50.941Z,101736.00
2022-10-17T20:48:22.600Z,101737.00
2022-10-17T20:50:53.340Z,101738.00
2022-10-17T20:53:36.474Z,101729.00
2022-10-17T20:56:12.554Z,101743.00
2022-10-17T20:58:42.741Z,101734.00
2022-10-17T21:01:13.937Z,101740.00
2022-10-17T21:03:46.547Z,101732.00
2022-10-17T21:06:17.941Z,101736.00
2022-10-17T21:08:49.055Z,101737.00
2022-10-17T21:11:25.328Z,101737.00
2022-10-17T21:13:59.297Z,101742.00
2022-10-17T21:16:30.962Z,101748.00
2022-10-17T21:19:01.145Z,101744.00
2022-10-17T21:21:34.121Z,101745.00
2022-10-17T21:24:07.266Z,101751.00
2022-10-17T21:26:41.236Z,101747.00
2022-10-17T21:29:12.553Z,101761.00
2022-10-17T21:31:44.875Z,101749.00
2022-10-17T21:34:18.580Z,101756.00
2022-10-17T21:36:48.813Z,101743.00
2022-10-17T21:39:19.950Z,101748.00
2022-10-17T21:41:52.839Z,101745.00
2022-10-17T21:44:25.699Z,101747.00
2022-10-17T21:46:57.308Z,101749.00
2022-10-17T21:49:29.876Z,101757.00
2022-10-17T21:52:00.114Z,101761.00
2022-10-17T21:54:30.304Z,101757.00
2022-10-17T21:57:03.120Z,101758.00
2022-10-17T21:59:35.674Z,101758.00
2022-10-17T22:02:05.968Z,101757.00
2022-10-17T22:04:36.065Z,101757.00
2022-10-17T22:07:06.201Z,101769.00
2022-10-17T22:09:36.320Z,101770.00
2022-10-17T22:12:09.145Z,101772.00
2022-10-17T22:14:39.230Z,101777.00
2022-10-17T22:17:09.357Z,101779.00
2022-10-17T22:19:39.443Z,101777.00
2022-10-17T22:22:09.632Z,101775.00
2022-10-17T22:24:40.143Z,101783.00
2022-10-17T22:27:13.101Z,101784.00
2022-10-17T22:33:25.068Z,101783.00
2022-10-17T22:35:55.233Z,101779.00
2022-10-17T22:38:25.296Z,101783.00
2022-10-17T22:40:55.529Z,101775.00
2022-10-17T22:43:28.591Z,101787.00
2022-10-17T22:46:01.288Z,101785.00
2022-10-17T22:48:32.560Z,101783.00
2022-10-17T22:51:03.393Z,101780.00
2022-10-17T22:53:35.256Z,101787.00
2022-10-17T22:56:11.748Z,101783.00
2022-10-17T22:58:44.737Z,101780.00
2022-10-17T23:01:19.725Z,101781.00
2022-10-17T23:03:50.479Z,101783.00
2022-10-17T23:06:21.081Z,101783.00
2022-10-17T23:08:52.349Z,101780.00
2022-10-17T23:11:23.552Z,101775.00
2022-10-17T23:13:56.233Z,101783.00
2022-10-17T23:16:26.419Z,101771.00
2022-10-17T23:18:56.626Z,101790.00
2022-10-17T23:21:26.876Z,101788.00
2022-10-17T23:23:57.070Z,101785.00
2022-10-17T23:26:27.224Z,101785.00
2022-10-17T23:29:00.217Z,101783.00
2022-10-17T23:31:30.448Z,101776.00
2022-10-17T23:34:01.984Z,101783.00
2022-10-17T23:39:22.482Z,101789.00
2022-10-17T23:41:52.681Z,101794.00
2022-10-17T23:44:25.388Z,101791.00
2022-10-17T23:46:55.536Z,101785.00
2022-10-17T23:49:25.684Z,101783.00
2022-10-17T23:51:55.699Z,101783.00
2022-10-17T23:54:25.951Z,101782.00
2022-10-17T23:56:56.107Z,101781.00
2022-10-17T23:59:28.798Z,101782.00
